sensor_id;sensor_type;location;lat;lon;timestamp;temperature;humidity
14908;DHT22;7545;52.092;7.006;2023-02-13T00:00:43;8.10;99.90
14908;DHT22;7545;52.092;7.006;2023-02-13T00:03:08;8.00;99.90
14908;DHT22;7545;52.092;7.006;2023-02-13T00:05:34;8.00;99.90
14908;DHT22;7545;52.092;7.006;2023-02-13T00:08:00;8.00;99.90
14908;DHT22;7545;52.092;7.006;2023-02-13T00:10:25;8.00;99.90
14908;DHT22;7545;52.092;7.006;2023-02-13T00:12:51;8.00;99.90
14908;DHT22;7545;52.092;7.006;2023-02-13T00:15:17;8.00;99.90
14908;DHT22;7545;52.092;7.006;2023-02-13T00:17:43;8.00;99.90
14908;DHT22;7545;52.092;7.006;2023-02-13T00:20:09;7.90;99.90
14908;DHT22;7545;52.092;7.006;2023-02-13T00:22:36;7.90;99.90
14908;DHT22;7545;52.092;7.006;2023-02-13T00:25:04;7.90;99.90
14908;DHT22;7545;52.092;7.006;2023-02-13T00:27:29;7.90;99.90
14908;DHT22;7545;52.092;7.006;2023-02-13T00:29:55;7.90;99.90
14908;DHT22;7545;52.092;7.006;2023-02-13T00:32:21;7.90;99.90
14908;DHT22;7545;52.092;7.006;2023-02-13T00:34:46;7.90;99.90
14908;DHT22;7545;52.092;7.006;2023-02-13T00:37:12;7.90;99.90
14908;DHT22;7545;52.092;7.006;2023-02-13T00:39:37;7.90;99.90
14908;DHT22;7545;52.092;7.006;2023-02-13T00:42:03;7.80;99.90
14908;DHT22;7545;52.092;7.006;2023-02-13T00:44:29;7.80;99.90
14908;DHT22;7545;52.092;7.006;2023-02-13T00:46:55;7.80;99.90
14908;DHT22;7545;52.092;7.006;2023-02-13T00:49:20;7.80;99.90
14908;DHT22;7545;52.092;7.006;2023-02-13T00:51:46;7.80;99.90
14908;DHT22;7545;52.092;7.006;2023-02-13T00:54:12;7.80;99.90
14908;DHT22;7545;52.092;7.006;2023-02-13T00:56:37;7.80;99.90
14908;DHT22;7545;52.092;7.006;2023-02-13T00:59:03;7.80;99.90
14908;DHT22;7545;52.092;7.006;2023-02-13T01:01:29;7.80;99.90
14908;DHT22;7545;52.092;7.006;2023-02-13T01:03:54;7.80;99.90
14908;DHT22;7545;52.092;7.006;2023-02-13T01:06:20;7.80;99.90
14908;DHT22;7545;52.092;7.006;2023-02-13T01:08:45;7.70;99.90
14908;DHT22;7545;52.092;7.006;2023-02-13T01:11:11;7.80;99.90
14908;DHT22;7545;52.092;7.006;2023-02-13T01:13:37;7.70;99.90
14908;DHT22;7545;52.092;7.006;2023-02-13T01:16:03;7.70;99.90
14908;DHT22;7545;52.092;7.006;2023-02-13T01:18:28;7.70;99.90
14908;DHT22;7545;52.092;7.006;2023-02-13T01:21:00;7.70;99.90
14908;DHT22;7545;52.092;7.006;2023-02-13T01:23:32;7.60;99.90
14908;DHT22;7545;52.092;7.006;2023-02-13T01:25:58;7.60;99.90
14908;DHT22;7545;52.092;7.006;2023-02-13T01:28:25;7.60;99.90
14908;DHT22;7545;52.092;7.006;2023-02-13T01:30:55;7.60;99.90
14908;DHT22;7545;52.092;7.006;2023-02-13T01:33:25;7.60;99.90
14908;DHT22;7545;52.092;7.006;2023-02-13T01:35:51;7.60;99.90
14908;DHT22;7545;52.092;7.006;2023-02-13T01:38:17;7.60;99.90
14908;DHT22;7545;52.092;7.006;2023-02-13T01:40:47;7.60;99.90
14908;DHT22;7545;52.092;7.006;2023-02-13T01:43:13;7.60;99.90
14908;DHT22;7545;52.092;7.006;2023-02-13T01:45:40;7.60;99.90
14908;DHT22;7545;52.092;7.006;2023-02-13T01:48:28;7.60;99.90
14908;DHT22;7545;52.092;7.006;2023-02-13T01:51:01;7.50;99.90
14908;DHT22;7545;52.092;7.006;2023-02-13T01:53:58;7.50;99.90
14908;DHT22;7545;52.092;7.006;2023-02-13T01:57:02;7.50;99.90
14908;DHT22;7545;52.092;7.006;2023-02-13T01:59:33;7.50;99.90
14908;DHT22;7545;52.092;7.006;2023-02-13T02:02:00;7.50;99.90
14908;DHT22;7545;52.092;7.006;2023-02-13T02:04:33;7.50;99.90
14908;DHT22;7545;52.092;7.006;2023-02-13T02:07:16;7.50;99.90
14908;DHT22;7545;52.092;7.006;2023-02-13T02:09:44;7.50;99.90
14908;DHT22;7545;52.092;7.006;2023-02-13T02:12:24;7.50;99.90
14908;DHT22;7545;52.092;7.006;2023-02-13T02:14:52;7.50;99.90
14908;DHT22;7545;52.092;7.006;2023-02-13T02:17:21;7.50;99.90
14908;DHT22;7545;52.092;7.006;2023-02-13T02:20:13;7.60;99.90
14908;DHT22;7545;52.092;7.006;2023-02-13T02:29:04;7.50;99.90
14908;DHT22;7545;52.092;7.006;2023-02-13T02:40:25;7.50;99.90
14908;DHT22;7545;52.092;7.006;2023-02-13T02:43:15;7.50;99.90
14908;DHT22;7545;52.092;7.006;2023-02-13T02:48:31;7.50;99.90
14908;DHT22;7545;52.092;7.006;2023-02-13T02:51:36;7.50;99.90
14908;DHT22;7545;52.092;7.006;2023-02-13T02:57:15;7.60;99.90
14908;DHT22;7545;52.092;7.006;2023-02-13T02:59:42;7.60;99.90
14908;DHT22;7545;52.092;7.006;2023-02-13T03:02:29;7.60;99.90
14908;DHT22;7545;52.092;7.006;2023-02-13T03:05:29;7.60;99.90
14908;DHT22;7545;52.092;7.006;2023-02-13T03:08:15;7.60;99.90
14908;DHT22;7545;52.092;7.006;2023-02-13T03:11:01;7.60;99.90
14908;DHT22;7545;52.092;7.006;2023-02-13T03:13:47;7.60;99.90
14908;DHT22;7545;52.092;7.006;2023-02-13T03:16:21;7.60;99.90
14908;DHT22;7545;52.092;7.006;2023-02-13T03:19:12;7.60;99.90
14908;DHT22;7545;52.092;7.006;2023-02-13T03:22:07;7.60;99.90
14908;DHT22;7545;52.092;7.006;2023-02-13T03:27:33;7.60;99.90
14908;DHT22;7545;52.092;7.006;2023-02-13T03:39:59;7.70;99.90
14908;DHT22;7545;52.092;7.006;2023-02-13T03:42:16;7.60;99.90
14908;DHT22;7545;52.092;7.006;2023-02-13T03:44:53;7.60;99.90
14908;DHT22;7545;52.092;7.006;2023-02-13T03:47:41;7.70;99.90
14908;DHT22;7545;52.092;7.006;2023-02-13T03:50:08;7.70;99.90
14908;DHT22;7545;52.092;7.006;2023-02-13T03:55:16;7.70;99.90
14908;DHT22;7545;52.092;7.006;2023-02-13T03:58:08;7.70;99.90
14908;DHT22;7545;52.092;7.006;2023-02-13T04:00:56;7.70;99.90
14908;DHT22;7545;52.092;7.006;2023-02-13T04:06:17;7.70;99.90
14908;DHT22;7545;52.092;7.006;2023-02-13T04:08:44;7.70;99.90
14908;DHT22;7545;52.092;7.006;2023-02-13T04:11:24;7.70;99.90
14908;DHT22;7545;52.092;7.006;2023-02-13T04:14:00;7.70;99.90
14908;DHT22;7545;52.092;7.006;2023-02-13T04:16:37;7.70;99.90
14908;DHT22;7545;52.092;7.006;2023-02-13T04:19:04;7.70;99.90
14908;DHT22;7545;52.092;7.006;2023-02-13T04:21:36;7.70;99.90
14908;DHT22;7545;52.092;7.006;2023-02-13T04:24:02;7.70;99.90
14908;DHT22;7545;52.092;7.006;2023-02-13T04:26:36;7.70;99.90
14908;DHT22;7545;52.092;7.006;2023-02-13T04:29:02;7.70;99.90
14908;DHT22;7545;52.092;7.006;2023-02-13T04:31:28;7.70;99.90
14908;DHT22;7545;52.092;7.006;2023-02-13T04:33:53;7.70;99.90
14908;DHT22;7545;52.092;7.006;2023-02-13T04:36:19;7.70;99.90
14908;DHT22;7545;52.092;7.006;2023-02-13T04:38:45;7.70;99.90
14908;DHT22;7545;52.092;7.006;2023-02-13T04:41:11;7.70;99.90
14908;DHT22;7545;52.092;7.006;2023-02-13T04:43:37;7.70;99.90
14908;DHT22;7545;52.092;7.006;2023-02-13T04:46:03;7.70;99.90
14908;DHT22;7545;52.092;7.006;2023-02-13T04:48:29;7.70;99.90
14908;DHT22;7545;52.092;7.006;2023-02-13T04:50:55;7.70;99.90
14908;DHT22;7545;52.092;7.006;2023-02-13T04:53:20;7.70;99.90
14908;DHT22;7545;52.092;7.006;2023-02-13T04:55:46;7.70;99.90
14908;DHT22;7545;52.092;7.006;2023-02-13T04:58:12;7.70;99.90
14908;DHT22;7545;52.092;7.006;2023-02-13T05:00:37;7.70;99.90
14908;DHT22;7545;52.092;7.006;2023-02-13T05:03:08;7.70;99.90
14908;DHT22;7545;52.092;7.006;2023-02-13T05:05:34;7.70;99.90
14908;DHT22;7545;52.092;7.006;2023-02-13T05:08:00;7.70;99.90
14908;DHT22;7545;52.092;7.006;2023-02-13T05:10:26;7.70;99.90
14908;DHT22;7545;52.092;7.006;2023-02-13T05:12:52;7.70;99.90
14908;DHT22;7545;52.092;7.006;2023-02-13T05:15:17;7.70;99.90
14908;DHT22;7545;52.092;7.006;2023-02-13T05:17:44;7.70;99.90
14908;DHT22;7545;52.092;7.006;2023-02-13T05:20:10;7.70;99.90
14908;DHT22;7545;52.092;7.006;2023-02-13T05:22:36;7.70;99.90
14908;DHT22;7545;52.092;7.006;2023-02-13T05:25:20;7.70;99.90
14908;DHT22;7545;52.092;7.006;2023-02-13T05:27:46;7.80;99.90
14908;DHT22;7545;52.092;7.006;2023-02-13T05:30:12;7.80;99.90
14908;DHT22;7545;52.092;7.006;2023-02-13T05:32:38;7.80;99.90
14908;DHT22;7545;52.092;7.006;2023-02-13T05:35:04;7.80;99.90
14908;DHT22;7545;52.092;7.006;2023-02-13T05:37:30;7.80;99.90
14908;DHT22;7545;52.092;7.006;2023-02-13T05:39:55;7.80;99.90
14908;DHT22;7545;52.092;7.006;2023-02-13T05:42:21;7.70;99.90
14908;DHT22;7545;52.092;7.006;2023-02-13T05:44:47;7.80;99.90
14908;DHT22;7545;52.092;7.006;2023-02-13T05:47:12;7.80;99.90
14908;DHT22;7545;52.092;7.006;2023-02-13T05:49:38;7.80;99.90
14908;DHT22;7545;52.092;7.006;2023-02-13T05:52:03;7.80;99.90
14908;DHT22;7545;52.092;7.006;2023-02-13T05:54:29;7.80;99.90
14908;DHT22;7545;52.092;7.006;2023-02-13T05:56:55;7.80;99.90
14908;DHT22;7545;52.092;7.006;2023-02-13T05:59:20;7.80;99.90
14908;DHT22;7545;52.092;7.006;2023-02-13T06:01:46;7.90;99.90
14908;DHT22;7545;52.092;7.006;2023-02-13T06:04:12;7.90;99.90
14908;DHT22;7545;52.092;7.006;2023-02-13T06:06:37;7.80;99.90
14908;DHT22;7545;52.092;7.006;2023-02-13T06:09:03;7.80;99.90
14908;DHT22;7545;52.092;7.006;2023-02-13T06:11:29;7.80;99.90
14908;DHT22;7545;52.092;7.006;2023-02-13T06:13:54;7.70;99.90
14908;DHT22;7545;52.092;7.006;2023-02-13T06:16:20;7.80;99.90
14908;DHT22;7545;52.092;7.006;2023-02-13T06:18:46;7.80;99.90
14908;DHT22;7545;52.092;7.006;2023-02-13T06:21:12;7.80;99.90
14908;DHT22;7545;52.092;7.006;2023-02-13T06:23:38;7.80;99.90
14908;DHT22;7545;52.092;7.006;2023-02-13T06:26:05;7.90;99.90
14908;DHT22;7545;52.092;7.006;2023-02-13T06:28:31;7.90;99.90
14908;DHT22;7545;52.092;7.006;2023-02-13T06:30:56;7.80;99.90
14908;DHT22;7545;52.092;7.006;2023-02-13T06:33:22;7.90;99.90
14908;DHT22;7545;52.092;7.006;2023-02-13T06:35:48;7.80;99.90
14908;DHT22;7545;52.092;7.006;2023-02-13T06:38:13;7.90;99.90
14908;DHT22;7545;52.092;7.006;2023-02-13T06:40:39;7.90;99.90
14908;DHT22;7545;52.092;7.006;2023-02-13T06:43:04;7.90;99.90
14908;DHT22;7545;52.092;7.006;2023-02-13T06:45:30;7.90;99.90
14908;DHT22;7545;52.092;7.006;2023-02-13T06:47:56;7.90;99.90
14908;DHT22;7545;52.092;7.006;2023-02-13T06:50:22;7.90;99.90
14908;DHT22;7545;52.092;7.006;2023-02-13T06:52:48;7.90;99.90
14908;DHT22;7545;52.092;7.006;2023-02-13T06:55:15;7.90;99.90
14908;DHT22;7545;52.092;7.006;2023-02-13T06:57:42;7.90;99.90
14908;DHT22;7545;52.092;7.006;2023-02-13T07:00:08;7.90;99.90
14908;DHT22;7545;52.092;7.006;2023-02-13T07:02:38;7.90;99.90
14908;DHT22;7545;52.092;7.006;2023-02-13T07:05:03;7.90;99.90
14908;DHT22;7545;52.092;7.006;2023-02-13T07:07:32;7.90;99.90
14908;DHT22;7545;52.092;7.006;2023-02-13T07:09:59;7.90;99.90
14908;DHT22;7545;52.092;7.006;2023-02-13T07:12:25;7.90;99.90
14908;DHT22;7545;52.092;7.006;2023-02-13T07:14:50;7.90;99.90
14908;DHT22;7545;52.092;7.006;2023-02-13T07:17:16;7.90;99.90
14908;DHT22;7545;52.092;7.006;2023-02-13T07:19:42;7.90;99.90
14908;DHT22;7545;52.092;7.006;2023-02-13T07:22:07;7.90;99.90
14908;DHT22;7545;52.092;7.006;2023-02-13T07:24:33;7.90;99.90
14908;DHT22;7545;52.092;7.006;2023-02-13T07:27:00;7.90;99.90
14908;DHT22;7545;52.092;7.006;2023-02-13T07:29:26;7.90;99.90
14908;DHT22;7545;52.092;7.006;2023-02-13T07:31:52;7.90;99.90
14908;DHT22;7545;52.092;7.006;2023-02-13T07:34:17;7.90;99.90
14908;DHT22;7545;52.092;7.006;2023-02-13T07:36:43;7.90;99.90
14908;DHT22;7545;52.092;7.006;2023-02-13T07:39:08;8.00;99.90
14908;DHT22;7545;52.092;7.006;2023-02-13T07:41:34;8.00;99.90
14908;DHT22;7545;52.092;7.006;2023-02-13T07:43:59;8.00;99.90
14908;DHT22;7545;52.092;7.006;2023-02-13T07:46:25;8.00;99.90
14908;DHT22;7545;52.092;7.006;2023-02-13T07:48:51;8.00;99.90
14908;DHT22;7545;52.092;7.006;2023-02-13T07:51:17;8.00;99.90
14908;DHT22;7545;52.092;7.006;2023-02-13T07:53:42;8.00;99.90
14908;DHT22;7545;52.092;7.006;2023-02-13T07:56:09;8.10;99.90
14908;DHT22;7545;52.092;7.006;2023-02-13T07:58:36;8.10;99.90
14908;DHT22;7545;52.092;7.006;2023-02-13T08:01:09;8.10;99.90
14908;DHT22;7545;52.092;7.006;2023-02-13T08:03:35;8.10;99.90
14908;DHT22;7545;52.092;7.006;2023-02-13T08:06:01;8.10;99.90
14908;DHT22;7545;52.092;7.006;2023-02-13T08:08:28;8.20;99.90
14908;DHT22;7545;52.092;7.006;2023-02-13T08:10:54;8.20;99.90
14908;DHT22;7545;52.092;7.006;2023-02-13T08:13:40;8.20;99.90
14908;DHT22;7545;52.092;7.006;2023-02-13T08:16:06;8.20;99.90
14908;DHT22;7545;52.092;7.006;2023-02-13T08:18:31;8.20;99.90
14908;DHT22;7545;52.092;7.006;2023-02-13T08:20:57;8.30;99.90
14908;DHT22;7545;52.092;7.006;2023-02-13T08:23:22;8.30;99.90
14908;DHT22;7545;52.092;7.006;2023-02-13T08:25:48;8.30;99.90
14908;DHT22;7545;52.092;7.006;2023-02-13T08:28:15;8.30;99.90
14908;DHT22;7545;52.092;7.006;2023-02-13T08:30:41;8.40;99.90
14908;DHT22;7545;52.092;7.006;2023-02-13T08:33:06;8.40;99.90
14908;DHT22;7545;52.092;7.006;2023-02-13T08:35:32;8.40;99.90
14908;DHT22;7545;52.092;7.006;2023-02-13T08:38:03;8.40;99.90
14908;DHT22;7545;52.092;7.006;2023-02-13T08:40:29;8.50;99.90
14908;DHT22;7545;52.092;7.006;2023-02-13T08:43:01;8.40;99.90
14908;DHT22;7545;52.092;7.006;2023-02-13T08:45:28;8.50;99.90
14908;DHT22;7545;52.092;7.006;2023-02-13T08:47:58;8.50;99.90
14908;DHT22;7545;52.092;7.006;2023-02-13T08:50:25;8.50;99.90
14908;DHT22;7545;52.092;7.006;2023-02-13T08:52:51;8.50;99.90
14908;DHT22;7545;52.092;7.006;2023-02-13T08:55:16;8.60;99.90
14908;DHT22;7545;52.092;7.006;2023-02-13T08:57:42;8.60;99.90
14908;DHT22;7545;52.092;7.006;2023-02-13T09:00:08;8.60;99.90
14908;DHT22;7545;52.092;7.006;2023-02-13T09:02:34;8.60;99.90
14908;DHT22;7545;52.092;7.006;2023-02-13T09:04:59;8.60;99.90
14908;DHT22;7545;52.092;7.006;2023-02-13T09:07:25;8.70;99.90
14908;DHT22;7545;52.092;7.006;2023-02-13T09:09:50;8.70;99.90
14908;DHT22;7545;52.092;7.006;2023-02-13T09:12:16;8.80;99.90
14908;DHT22;7545;52.092;7.006;2023-02-13T09:14:42;8.80;99.90
14908;DHT22;7545;52.092;7.006;2023-02-13T09:17:07;8.80;99.90
14908;DHT22;7545;52.092;7.006;2023-02-13T09:19:33;8.80;99.90
14908;DHT22;7545;52.092;7.006;2023-02-13T09:21:59;8.90;99.90
14908;DHT22;7545;52.092;7.006;2023-02-13T09:24:24;8.90;99.90
14908;DHT22;7545;52.092;7.006;2023-02-13T09:26:50;8.90;99.90
14908;DHT22;7545;52.092;7.006;2023-02-13T09:29:16;8.90;99.90
14908;DHT22;7545;52.092;7.006;2023-02-13T09:31:42;9.00;99.90
14908;DHT22;7545;52.092;7.006;2023-02-13T09:34:07;8.90;99.90
14908;DHT22;7545;52.092;7.006;2023-02-13T09:36:33;9.00;99.90
14908;DHT22;7545;52.092;7.006;2023-02-13T09:39:01;8.90;99.90
14908;DHT22;7545;52.092;7.006;2023-02-13T09:41:38;9.00;99.90
14908;DHT22;7545;52.092;7.006;2023-02-13T09:47:04;9.00;99.90
14908;DHT22;7545;52.092;7.006;2023-02-13T09:49:35;9.10;99.90
14908;DHT22;7545;52.092;7.006;2023-02-13T09:52:02;9.00;99.90
14908;DHT22;7545;52.092;7.006;2023-02-13T09:54:27;9.10;99.90
14908;DHT22;7545;52.092;7.006;2023-02-13T09:57:07;9.10;99.90
14908;DHT22;7545;52.092;7.006;2023-02-13T10:02:21;9.10;99.90
14908;DHT22;7545;52.092;7.006;2023-02-13T10:05:31;9.10;99.90
14908;DHT22;7545;52.092;7.006;2023-02-13T10:10:52;9.20;99.90
14908;DHT22;7545;52.092;7.006;2023-02-13T10:16:16;9.30;99.90
14908;DHT22;7545;52.092;7.006;2023-02-13T10:21:21;9.40;99.90
14908;DHT22;7545;52.092;7.006;2023-02-13T10:23:56;9.40;99.90
14908;DHT22;7545;52.092;7.006;2023-02-13T10:26:33;9.40;99.90
14908;DHT22;7545;52.092;7.006;2023-02-13T10:29:14;9.50;99.90
14908;DHT22;7545;52.092;7.006;2023-02-13T10:32:05;9.50;99.90
14908;DHT22;7545;52.092;7.006;2023-02-13T10:34:36;9.60;99.90
14908;DHT22;7545;52.092;7.006;2023-02-13T10:37:14;9.50;99.90
14908;DHT22;7545;52.092;7.006;2023-02-13T10:39:43;9.60;99.90
14908;DHT22;7545;52.092;7.006;2023-02-13T10:45:04;9.50;99.90
14908;DHT22;7545;52.092;7.006;2023-02-13T10:50:54;9.60;99.90
14908;DHT22;7545;52.092;7.006;2023-02-13T10:53:20;9.60;99.90
14908;DHT22;7545;52.092;7.006;2023-02-13T10:58:25;9.60;99.90
14908;DHT22;7545;52.092;7.006;2023-02-13T11:01:01;9.60;99.90
14908;DHT22;7545;52.092;7.006;2023-02-13T11:03:29;9.70;99.90
14908;DHT22;7545;52.092;7.006;2023-02-13T11:05:56;9.70;99.90
14908;DHT22;7545;52.092;7.006;2023-02-13T11:08:26;9.70;99.90
14908;DHT22;7545;52.092;7.006;2023-02-13T11:10:52;9.90;99.90
14908;DHT22;7545;52.092;7.006;2023-02-13T11:13:22;9.90;99.90
14908;DHT22;7545;52.092;7.006;2023-02-13T11:16:17;10.00;99.90
14908;DHT22;7545;52.092;7.006;2023-02-13T11:18:48;10.10;99.90
14908;DHT22;7545;52.092;7.006;2023-02-13T11:21:22;10.20;99.90
14908;DHT22;7545;52.092;7.006;2023-02-13T11:23:58;10.20;99.90
14908;DHT22;7545;52.092;7.006;2023-02-13T11:29:05;10.30;99.90
14908;DHT22;7545;52.092;7.006;2023-02-13T11:31:40;10.40;99.90
14908;DHT22;7545;52.092;7.006;2023-02-13T11:34:26;10.50;99.90
14908;DHT22;7545;52.092;7.006;2023-02-13T11:37:08;10.60;99.90
14908;DHT22;7545;52.092;7.006;2023-02-13T11:39:42;10.60;99.90
14908;DHT22;7545;52.092;7.006;2023-02-13T11:42:35;10.60;99.90
14908;DHT22;7545;52.092;7.006;2023-02-13T11:45:07;10.60;99.90
14908;DHT22;7545;52.092;7.006;2023-02-13T11:47:44;10.50;99.90
14908;DHT22;7545;52.092;7.006;2023-02-13T11:50:31;10.50;99.90
14908;DHT22;7545;52.092;7.006;2023-02-13T11:55:37;10.40;99.90
14908;DHT22;7545;52.092;7.006;2023-02-13T12:00:41;10.40;99.90
14908;DHT22;7545;52.092;7.006;2023-02-13T12:03:31;10.50;99.90
14908;DHT22;7545;52.092;7.006;2023-02-13T12:08:38;10.70;99.90
14908;DHT22;7545;52.092;7.006;2023-02-13T12:13:42;10.90;99.90
14908;DHT22;7545;52.092;7.006;2023-02-13T12:18:53;11.20;99.90
14908;DHT22;7545;52.092;7.006;2023-02-13T12:21:35;11.30;99.90
14908;DHT22;7545;52.092;7.006;2023-02-13T12:33:01;11.30;99.90
14908;DHT22;7545;52.092;7.006;2023-02-13T12:35:51;11.10;99.90
14908;DHT22;7545;52.092;7.006;2023-02-13T12:38:34;11.10;99.90
14908;DHT22;7545;52.092;7.006;2023-02-13T12:46:31;11.10;99.90
14908;DHT22;7545;52.092;7.006;2023-02-13T13:02:54;11.70;99.90
14908;DHT22;7545;52.092;7.006;2023-02-13T13:16:32;12.00;99.90
14908;DHT22;7545;52.092;7.006;2023-02-13T13:22:04;12.00;99.90
14908;DHT22;7545;52.092;7.006;2023-02-13T13:27:01;12.10;99.90
14908;DHT22;7545;52.092;7.006;2023-02-13T13:29:47;12.10;99.90
14908;DHT22;7545;52.092;7.006;2023-02-13T13:32:19;12.10;99.90
14908;DHT22;7545;52.092;7.006;2023-02-13T13:34:46;12.10;99.90
14908;DHT22;7545;52.092;7.006;2023-02-13T13:37:20;12.20;99.90
14908;DHT22;7545;52.092;7.006;2023-02-13T13:40:04;12.20;99.90
14908;DHT22;7545;52.092;7.006;2023-02-13T13:42:48;12.30;99.90
14908;DHT22;7545;52.092;7.006;2023-02-13T13:50:44;12.50;99.90
14908;DHT22;7545;52.092;7.006;2023-02-13T13:53:19;12.50;99.90
14908;DHT22;7545;52.092;7.006;2023-02-13T14:03:53;12.50;99.90
14908;DHT22;7545;52.092;7.006;2023-02-13T14:06:21;12.50;99.90
14908;DHT22;7545;52.092;7.006;2023-02-13T14:11:36;12.50;99.90
14908;DHT22;7545;52.092;7.006;2023-02-13T14:16:55;12.60;99.90
14908;DHT22;7545;52.092;7.006;2023-02-13T14:19:38;12.50;99.90
14908;DHT22;7545;52.092;7.006;2023-02-13T14:22:26;12.50;99.90
14908;DHT22;7545;52.092;7.006;2023-02-13T14:24:58;12.50;99.90
14908;DHT22;7545;52.092;7.006;2023-02-13T14:27:35;12.50;99.90
14908;DHT22;7545;52.092;7.006;2023-02-13T14:30:03;12.50;99.90
14908;DHT22;7545;52.092;7.006;2023-02-13T14:32:35;12.50;99.90
14908;DHT22;7545;52.092;7.006;2023-02-13T14:35:05;12.50;99.90
14908;DHT22;7545;52.092;7.006;2023-02-13T14:37:36;12.40;99.90
14908;DHT22;7545;52.092;7.006;2023-02-13T14:42:42;12.40;99.90
14908;DHT22;7545;52.092;7.006;2023-02-13T14:45:15;12.40;99.90
14908;DHT22;7545;52.092;7.006;2023-02-13T14:47:45;12.40;99.90
14908;DHT22;7545;52.092;7.006;2023-02-13T14:50:22;12.30;99.90
14908;DHT22;7545;52.092;7.006;2023-02-13T14:52:50;12.30;99.90
14908;DHT22;7545;52.092;7.006;2023-02-13T14:55:39;12.30;99.90
14908;DHT22;7545;52.092;7.006;2023-02-13T14:58:15;12.30;99.90
14908;DHT22;7545;52.092;7.006;2023-02-13T15:01:05;12.30;99.90
14908;DHT22;7545;52.092;7.006;2023-02-13T15:03:46;12.20;99.90
14908;DHT22;7545;52.092;7.006;2023-02-13T15:06:25;12.20;99.90
14908;DHT22;7545;52.092;7.006;2023-02-13T15:08:52;12.20;99.90
14908;DHT22;7545;52.092;7.006;2023-02-13T15:11:37;12.30;99.90
14908;DHT22;7545;52.092;7.006;2023-02-13T15:14:17;12.20;99.90
14908;DHT22;7545;52.092;7.006;2023-02-13T15:16:45;12.20;99.90
14908;DHT22;7545;52.092;7.006;2023-02-13T15:19:17;12.10;99.90
14908;DHT22;7545;52.092;7.006;2023-02-13T15:22:02;12.10;99.90
14908;DHT22;7545;52.092;7.006;2023-02-13T15:24:42;12.00;99.90
14908;DHT22;7545;52.092;7.006;2023-02-13T15:27:30;12.00;99.90
14908;DHT22;7545;52.092;7.006;2023-02-13T15:30:00;11.90;99.90
14908;DHT22;7545;52.092;7.006;2023-02-13T15:32:34;11.90;99.90
14908;DHT22;7545;52.092;7.006;2023-02-13T15:35:09;11.90;99.90
14908;DHT22;7545;52.092;7.006;2023-02-13T15:37:40;11.80;99.90
14908;DHT22;7545;52.092;7.006;2023-02-13T15:40:13;11.80;99.90
14908;DHT22;7545;52.092;7.006;2023-02-13T15:42:39;11.80;99.90
14908;DHT22;7545;52.092;7.006;2023-02-13T15:45:13;11.80;99.90
14908;DHT22;7545;52.092;7.006;2023-02-13T15:47:40;11.70;99.90
14908;DHT22;7545;52.092;7.006;2023-02-13T15:52:50;11.60;99.90
14908;DHT22;7545;52.092;7.006;2023-02-13T15:55:25;11.60;99.90
14908;DHT22;7545;52.092;7.006;2023-02-13T15:57:53;11.60;99.90
14908;DHT22;7545;52.092;7.006;2023-02-13T16:00:33;11.50;99.90
14908;DHT22;7545;52.092;7.006;2023-02-13T16:03:01;11.50;99.90
14908;DHT22;7545;52.092;7.006;2023-02-13T16:05:32;11.40;99.90
14908;DHT22;7545;52.092;7.006;2023-02-13T16:07:59;11.40;99.90
14908;DHT22;7545;52.092;7.006;2023-02-13T16:10:30;11.30;99.90
14908;DHT22;7545;52.092;7.006;2023-02-13T16:12:58;11.20;99.90
14908;DHT22;7545;52.092;7.006;2023-02-13T16:15:28;11.20;99.90
14908;DHT22;7545;52.092;7.006;2023-02-13T16:17:54;11.10;99.90
14908;DHT22;7545;52.092;7.006;2023-02-13T16:20:23;11.00;99.90
14908;DHT22;7545;52.092;7.006;2023-02-13T16:22:56;11.00;99.90
14908;DHT22;7545;52.092;7.006;2023-02-13T16:25:37;10.90;99.90
14908;DHT22;7545;52.092;7.006;2023-02-13T16:28:16;10.90;99.90
14908;DHT22;7545;52.092;7.006;2023-02-13T16:30:44;10.90;99.90
14908;DHT22;7545;52.092;7.006;2023-02-13T16:35:40;10.70;99.90
14908;DHT22;7545;52.092;7.006;2023-02-13T16:38:33;10.70;99.90
14908;DHT22;7545;52.092;7.006;2023-02-13T16:46:11;10.50;99.90
14908;DHT22;7545;52.092;7.006;2023-02-13T16:56:48;10.20;99.90
14908;DHT22;7545;52.092;7.006;2023-02-13T16:59:40;10.20;99.90
14908;DHT22;7545;52.092;7.006;2023-02-13T17:07:28;9.90;99.90
14908;DHT22;7545;52.092;7.006;2023-02-13T17:09:56;9.80;99.90
14908;DHT22;7545;52.092;7.006;2023-02-13T17:12:22;9.80;99.90
14908;DHT22;7545;52.092;7.006;2023-02-13T17:14:48;9.70;99.90
14908;DHT22;7545;52.092;7.006;2023-02-13T17:17:17;9.70;99.90
14908;DHT22;7545;52.092;7.006;2023-02-13T17:19:43;9.60;99.90
14908;DHT22;7545;52.092;7.006;2023-02-13T17:22:21;9.50;99.90
14908;DHT22;7545;52.092;7.006;2023-02-13T17:24:47;9.50;99.90
14908;DHT22;7545;52.092;7.006;2023-02-13T17:27:13;9.40;99.90
14908;DHT22;7545;52.092;7.006;2023-02-13T17:29:39;9.40;99.90
14908;DHT22;7545;52.092;7.006;2023-02-13T17:32:04;9.40;99.90
14908;DHT22;7545;52.092;7.006;2023-02-13T17:34:30;9.20;99.90
14908;DHT22;7545;52.092;7.006;2023-02-13T17:36:55;9.20;99.90
14908;DHT22;7545;52.092;7.006;2023-02-13T17:39:21;9.20;99.90
14908;DHT22;7545;52.092;7.006;2023-02-13T17:41:47;9.10;99.90
14908;DHT22;7545;52.092;7.006;2023-02-13T17:44:12;9.10;99.90
14908;DHT22;7545;52.092;7.006;2023-02-13T17:46:38;9.10;99.90
14908;DHT22;7545;52.092;7.006;2023-02-13T17:49:04;9.00;99.90
14908;DHT22;7545;52.092;7.006;2023-02-13T17:51:30;9.00;99.90
14908;DHT22;7545;52.092;7.006;2023-02-13T17:53:56;8.90;99.90
14908;DHT22;7545;52.092;7.006;2023-02-13T17:56:21;8.90;99.90
14908;DHT22;7545;52.092;7.006;2023-02-13T17:58:47;8.80;99.90
14908;DHT22;7545;52.092;7.006;2023-02-13T18:01:13;8.80;99.90
14908;DHT22;7545;52.092;7.006;2023-02-13T18:03:38;8.80;99.90
14908;DHT22;7545;52.092;7.006;2023-02-13T18:06:05;8.70;99.90
14908;DHT22;7545;52.092;7.006;2023-02-13T18:08:32;8.70;99.90
14908;DHT22;7545;52.092;7.006;2023-02-13T18:10:57;8.60;99.90
14908;DHT22;7545;52.092;7.006;2023-02-13T18:13:23;8.60;99.90
14908;DHT22;7545;52.092;7.006;2023-02-13T18:15:48;8.50;99.90
14908;DHT22;7545;52.092;7.006;2023-02-13T18:18:14;8.50;99.90
14908;DHT22;7545;52.092;7.006;2023-02-13T18:20:41;8.50;99.90
14908;DHT22;7545;52.092;7.006;2023-02-13T18:23:07;8.50;99.90
14908;DHT22;7545;52.092;7.006;2023-02-13T18:25:34;8.40;99.90
14908;DHT22;7545;52.092;7.006;2023-02-13T18:28:00;8.40;99.90
14908;DHT22;7545;52.092;7.006;2023-02-13T18:30:25;8.30;99.90
14908;DHT22;7545;52.092;7.006;2023-02-13T18:32:53;8.30;99.90
14908;DHT22;7545;52.092;7.006;2023-02-13T18:35:19;8.30;99.90
14908;DHT22;7545;52.092;7.006;2023-02-13T18:37:45;8.20;99.90
14908;DHT22;7545;52.092;7.006;2023-02-13T18:40:11;8.30;99.90
14908;DHT22;7545;52.092;7.006;2023-02-13T18:42:36;8.20;99.90
14908;DHT22;7545;52.092;7.006;2023-02-13T18:45:03;8.20;99.90
14908;DHT22;7545;52.092;7.006;2023-02-13T18:47:29;8.10;99.90
14908;DHT22;7545;52.092;7.006;2023-02-13T18:49:55;8.10;99.90
14908;DHT22;7545;52.092;7.006;2023-02-13T18:52:20;8.10;99.90
14908;DHT22;7545;52.092;7.006;2023-02-13T18:54:46;8.10;99.90
14908;DHT22;7545;52.092;7.006;2023-02-13T18:57:11;8.00;99.90
14908;DHT22;7545;52.092;7.006;2023-02-13T18:59:37;8.00;99.90
14908;DHT22;7545;52.092;7.006;2023-02-13T19:02:03;8.00;99.90
14908;DHT22;7545;52.092;7.006;2023-02-13T19:04:28;7.90;99.90